Time;durP1;ratioP1;P1;durP2;ratioP2;P2;SDS_P1;SDS_P2;PMS_P1;PMS_P2;Temp;Humidity;BMP_temperature;BMP_pressure;BME280_temperature;BME280_humidity;BME280_pressure;Samples;Min_cycle;Max_cycle;Signal;HPM_P1;HPM_P2
2023/12/29 00:01:29;;;;;;;17.10;9.90;;;;;;;5.12;100.00;100298.02;106320;1262;98484;-80
2023/12/29 00:04:15;;;;;;;21.50;10.30;;;;;;;5.11;100.00;100299.05;106347;1265;102532;-81
2023/12/29 00:07:02;;;;;;;17.60;9.80;;;;;;;5.07;100.00;100298.55;106403;1262;99106;-81
2023/12/29 00:09:47;;;;;;;17.20;10.40;;;;;;;5.04;100.00;100298.03;106382;1266;98764;-80
2023/12/29 00:12:33;;;;;;;20.20;9.70;;;;;;;5.03;100.00;100294.78;106364;1266;98093;-81
2023/12/29 00:15:18;;;;;;;16.80;9.90;;;;;;;5.03;100.00;100290.37;106400;1267;97898;-81
2023/12/29 00:18:04;;;;;;;23.20;10.00;;;;;;;5.03;100.00;100292.77;106469;1261;102170;-81
2023/12/29 00:20:49;;;;;;;19.20;10.50;;;;;;;5.03;100.00;100286.79;106461;1263;100205;-82
2023/12/29 00:23:35;;;;;;;20.10;10.20;;;;;;;5.02;100.00;100286.59;106291;1262;99056;-78
2023/12/29 00:26:20;;;;;;;21.50;10.90;;;;;;;5.01;100.00;100284.19;106188;1262;132779;-81
2023/12/29 00:29:07;;;;;;;20.90;10.40;;;;;;;4.99;100.00;100294.13;106259;1267;97948;-80
2023/12/29 00:31:53;;;;;;;19.60;9.70;;;;;;;4.98;100.00;100296.70;106277;1263;102667;-81
2023/12/29 00:34:39;;;;;;;18.10;10.00;;;;;;;4.97;100.00;100300.36;106531;1264;99097;-80
2023/12/29 00:37:25;;;;;;;20.90;10.50;;;;;;;4.95;100.00;100294.35;106483;1267;98996;-80
2023/12/29 00:40:11;;;;;;;19.60;10.00;;;;;;;4.95;100.00;100290.42;106393;1264;98065;-81
2023/12/29 00:42:56;;;;;;;19.70;11.10;;;;;;;4.95;100.00;100289.41;106432;1264;97891;-81
2023/12/29 00:45:42;;;;;;;17.80;10.60;;;;;;;4.93;100.00;100293.17;106538;1264;102584;-81
2023/12/29 00:48:27;;;;;;;19.60;10.70;;;;;;;4.91;100.00;100289.69;106478;1264;99116;-82
2023/12/29 00:51:13;;;;;;;23.30;12.20;;;;;;;4.89;100.00;100292.34;106290;1262;99096;-78
2023/12/29 00:53:58;;;;;;;22.90;12.00;;;;;;;4.87;100.00;100293.73;106251;1263;98041;-81
2023/12/29 00:56:53;;;;;;;24.60;11.60;;;;;;;4.84;100.00;100290.91;106229;1264;96492;-80
2023/12/29 00:59:39;;;;;;;24.10;13.00;;;;;;;4.80;100.00;100290.98;106412;1262;101940;-82
2023/12/29 01:02:27;;;;;;;24.10;12.80;;;;;;;4.79;100.00;100289.70;106443;1262;99694;-81
2023/12/29 01:05:19;;;;;;;21.10;10.80;;;;;;;4.76;100.00;100289.06;106286;1263;97836;-81
2023/12/29 01:08:05;;;;;;;23.20;12.60;;;;;;;4.75;100.00;100286.70;106283;1264;97963;-81
2023/12/29 01:10:51;;;;;;;21.90;11.30;;;;;;;4.73;100.00;100283.02;106517;1262;98240;-81
2023/12/29 01:13:36;;;;;;;20.10;10.40;;;;;;;4.72;100.00;100279.62;106535;1262;101586;-80
2023/12/29 01:16:22;;;;;;;21.50;11.80;;;;;;;4.69;100.00;100275.98;106407;1262;99228;-80
2023/12/29 01:19:09;;;;;;;20.20;11.60;;;;;;;4.68;100.00;100271.81;106423;1262;97996;-80
2023/12/29 01:21:54;;;;;;;20.00;11.60;;;;;;;4.67;100.00;100271.84;106253;1263;97240;-79
2023/12/29 01:24:41;;;;;;;20.00;11.40;;;;;;;4.65;100.00;100265.26;106231;1263;95839;-80
2023/12/29 01:27:27;;;;;;;21.40;11.00;;;;;;;4.62;99.98;100258.34;105847;1265;102296;-80
2023/12/29 01:30:12;;;;;;;18.30;11.20;;;;;;;4.58;99.97;100249.73;106353;1264;100487;-82
2023/12/29 01:32:58;;;;;;;20.80;11.40;;;;;;;4.56;100.00;100243.70;106177;1267;97990;-81
2023/12/29 01:35:44;;;;;;;19.40;10.60;;;;;;;4.53;100.00;100237.64;105696;1266;98095;-79
2023/12/29 01:38:29;;;;;;;22.10;11.00;;;;;;;4.51;99.98;100229.03;106356;1267;98651;-81
2023/12/29 01:41:15;;;;;;;20.00;12.20;;;;;;;4.50;100.00;100219.64;106417;1263;101488;-81
2023/12/29 01:44:00;;;;;;;22.60;12.40;;;;;;;4.48;100.00;100211.02;106320;1263;99693;-81
2023/12/29 01:46:47;;;;;;;21.00;10.30;;;;;;;4.47;100.00;100206.64;106204;1264;97881;-81
2023/12/29 01:49:34;;;;;;;19.60;10.70;;;;;;;4.44;100.00;100206.05;106193;1270;97907;-81
2023/12/29 01:52:19;;;;;;;19.50;10.60;;;;;;;4.42;100.00;100206.65;106355;1263;97905;-80
2023/12/29 01:55:06;;;;;;;21.70;11.50;;;;;;;4.42;100.00;100208.61;106165;1264;101484;-80
2023/12/29 01:57:53;;;;;;;21.30;11.30;;;;;;;4.43;100.00;100204.77;105939;1262;99811;-80
2023/12/29 02:00:39;;;;;;;16.90;10.30;;;;;;;4.43;100.00;100207.40;105918;1262;99053;-81
2023/12/29 02:03:24;;;;;;;20.90;11.40;;;;;;;4.42;100.00;100205.41;106242;1263;98213;-80
2023/12/29 02:06:10;;;;;;;17.30;10.30;;;;;;;4.41;100.00;100203.45;106288;1263;100367;-80
2023/12/29 02:08:56;;;;;;;19.00;10.50;;;;;;;4.39;100.00;100200.20;106174;1262;101475;-80
2023/12/29 02:11:42;;;;;;;18.70;10.50;;;;;;;4.40;100.00;100192.21;106374;1265;100385;-80
2023/12/29 02:14:28;;;;;;;15.90;9.50;;;;;;;4.39;100.00;100191.05;106418;1264;97879;-80
2023/12/29 02:17:13;;;;;;;19.60;11.30;;;;;;;4.39;100.00;100189.79;106218;1264;98017;-81
2023/12/29 02:20:00;;;;;;;19.20;10.70;;;;;;;4.39;100.00;100187.76;106393;1264;98615;-80
2023/12/29 02:22:47;;;;;;;19.10;10.90;;;;;;;4.37;100.00;100181.72;106279;1262;101437;-82
2023/12/29 02:25:34;;;;;;;18.70;10.50;;;;;;;4.35;100.00;100173.98;106224;1265;100423;-80
2023/12/29 02:28:26;;;;;;;18.50;10.90;;;;;;;4.34;100.00;100170.90;105612;1264;97871;-79
2023/12/29 02:31:19;;;;;;;19.60;10.10;;;;;;;4.34;100.00;100166.88;105895;1267;98165;-80
2023/12/29 02:34:08;;;;;;;18.40;10.50;;;;;;;4.33;100.00;100172.08;105742;1264;97879;-81
2023/12/29 02:36:55;;;;;;;18.00;10.50;;;;;;;4.32;100.00;100174.83;106233;1264;102678;-80
2023/12/29 02:39:40;;;;;;;19.50;10.50;;;;;;;4.30;100.00;100177.70;106491;1262;99165;-81
2023/12/29 02:42:26;;;;;;;21.80;11.40;;;;;;;4.28;100.00;100170.70;106306;1264;106805;-80
2023/12/29 02:45:12;;;;;;;18.20;10.40;;;;;;;4.26;100.00;100163.39;106490;1263;97991;-81
2023/12/29 02:47:58;;;;;;;16.00;9.30;;;;;;;4.25;100.00;100166.40;106213;1264;98452;-81
2023/12/29 02:50:43;;;;;;;17.90;10.50;;;;;;;4.24;100.00;100166.77;106366;1265;102130;-82
2023/12/29 02:53:28;;;;;;;17.00;10.70;;;;;;;4.24;100.00;100162.62;106173;1265;99108;-82
2023/12/29 02:56:14;;;;;;;21.70;11.40;;;;;;;4.24;100.00;100158.48;106349;1263;97793;-80
2023/12/29 02:59:01;;;;;;;18.70;10.70;;;;;;;4.24;100.00;100153.05;106329;1266;97982;-80
2023/12/29 03:01:46;;;;;;;18.40;11.10;;;;;;;4.22;100.00;100151.80;106407;1262;97893;-81
2023/12/29 03:04:32;;;;;;;19.30;10.30;;;;;;;4.22;100.00;100146.50;106414;1262;101425;-81
2023/12/29 03:07:17;;;;;;;17.60;10.80;;;;;;;4.21;100.00;100143.65;106333;1266;99063;-81
2023/12/29 03:10:03;;;;;;;18.70;11.40;;;;;;;4.18;100.00;100143.59;106381;1267;98461;-81
2023/12/29 03:12:49;;;;;;;19.60;11.20;;;;;;;4.16;100.00;100145.52;106406;1263;99086;-82
2023/12/29 03:15:34;;;;;;;17.90;11.10;;;;;;;4.14;100.00;100141.33;106414;1263;97876;-81
2023/12/29 03:18:19;;;;;;;21.20;11.40;;;;;;;4.13;100.00;100144.11;106186;1265;104100;-82
2023/12/29 03:21:06;;;;;;;19.00;11.20;;;;;;;4.13;100.00;100143.27;106404;1264;99197;-82
2023/12/29 03:23:52;;;;;;;19.50;10.60;;;;;;;4.11;100.00;100146.67;106365;1267;98230;-81
2023/12/29 03:26:37;;;;;;;24.60;11.90;;;;;;;4.09;100.00;100148.06;106262;1264;97956;-81
2023/12/29 03:29:23;;;;;;;19.10;11.20;;;;;;;4.08;100.00;100146.42;106254;1263;98219;-81
2023/12/29 03:32:08;;;;;;;21.30;12.30;;;;;;;4.06;100.00;100139.85;106288;1265;101383;-82
2023/12/29 03:34:53;;;;;;;19.20;11.00;;;;;;;4.05;100.00;100137.50;106249;1264;99308;-81
2023/12/29 03:37:39;;;;;;;21.80;10.90;;;;;;;4.05;100.00;100136.98;106400;1263;97925;-81
2023/12/29 03:40:26;;;;;;;18.80;10.50;;;;;;;4.04;100.00;100142.19;106363;1264;97987;-81
2023/12/29 03:43:12;;;;;;;20.40;11.10;;;;;;;4.03;100.00;100140.76;106305;1263;96411;-81
2023/12/29 03:45:58;;;;;;;19.80;10.40;;;;;;;4.02;100.00;100139.61;106303;1265;101423;-80
2023/12/29 03:48:44;;;;;;;19.80;11.20;;;;;;;4.01;100.00;100135.96;106417;1265;99790;-80
2023/12/29 03:51:29;;;;;;;18.80;11.20;;;;;;;4.01;100.00;100138.30;106214;1267;99095;-80
2023/12/29 03:54:14;;;;;;;20.20;11.80;;;;;;;3.99;100.00;100133.55;106150;1270;97898;-81
2023/12/29 03:57:00;;;;;;;23.50;11.60;;;;;;;3.99;100.00;100130.34;106336;1265;97926;-80
2023/12/29 03:59:45;;;;;;;21.60;11.00;;;;;;;3.99;100.00;100123.02;106464;1263;102625;-81
2023/12/29 04:02:31;;;;;;;18.70;11.10;;;;;;;3.99;100.00;100117.71;106327;1263;99479;-80
2023/12/29 04:05:16;;;;;;;18.40;10.10;;;;;;;3.99;100.00;100120.46;106232;1267;99114;-80
2023/12/29 04:08:02;;;;;;;17.80;11.90;;;;;;;3.97;100.00;100119.23;106291;1262;97972;-80
2023/12/29 04:10:47;;;;;;;20.80;12.00;;;;;;;3.97;100.00;100119.13;106385;1263;98553;-80
2023/12/29 04:13:34;;;;;;;18.20;10.70;;;;;;;3.95;100.00;100114.73;106364;1267;101354;-81
2023/12/29 04:16:20;;;;;;;20.20;11.90;;;;;;;3.95;100.00;100107.48;106359;1264;99176;-82
2023/12/29 04:19:05;;;;;;;20.30;11.10;;;;;;;3.95;100.00;100102.52;105873;1264;97984;-80
2023/12/29 04:21:51;;;;;;;19.80;10.70;;;;;;;3.96;100.00;100098.38;106464;1264;98731;-81
2023/12/29 04:24:37;;;;;;;19.70;10.40;;;;;;;3.96;100.00;100101.14;106388;1263;98442;-80
2023/12/29 04:27:23;;;;;;;18.90;10.40;;;;;;;3.97;100.00;100101.05;106387;1267;102637;-79
2023/12/29 04:30:10;;;;;;;21.60;10.90;;;;;;;3.97;100.00;100099.09;106392;1262;99296;-80
2023/12/29 04:32:55;;;;;;;16.60;10.30;;;;;;;3.97;100.00;100101.41;106347;1265;98773;-80
2023/12/29 04:35:41;;;;;;;19.60;11.30;;;;;;;3.98;100.00;100098.71;106449;1267;97990;-80
2023/12/29 04:38:26;;;;;;;19.60;10.70;;;;;;;3.97;100.00;100099.13;106345;1265;97978;-80
2023/12/29 04:41:13;;;;;;;21.70;10.70;;;;;;;3.97;100.00;100098.22;106483;1265;101416;-80
2023/12/29 04:43:59;;;;;;;17.10;10.50;;;;;;;3.97;100.00;100097.53;106343;1265;100603;-80
2023/12/29 04:46:44;;;;;;;19.70;10.90;;;;;;;3.97;100.00;100098.76;106370;1264;98976;-80
2023/12/29 04:49:30;;;;;;;18.90;10.70;;;;;;;3.98;100.00;100093.23;106486;1265;98001;-81
2023/12/29 04:52:15;;;;;;;16.20;10.10;;;;;;;3.97;100.00;100091.92;106285;1267;97755;-80
2023/12/29 04:55:01;;;;;;;19.10;11.00;;;;;;;3.97;100.00;100092.96;106518;1267;101505;-81
2023/12/29 04:57:46;;;;;;;18.10;10.90;;;;;;;3.96;100.00;100088.25;106500;1262;100297;-80
2023/12/29 05:00:32;;;;;;;17.80;11.20;;;;;;;3.96;100.00;100086.01;106432;1265;98021;-79
2023/12/29 05:03:17;;;;;;;20.50;11.50;;;;;;;3.97;100.00;100084.34;105952;1266;98569;-81
2023/12/29 05:06:03;;;;;;;18.50;10.90;;;;;;;3.97;100.00;100082.70;106441;1266;97779;-81
2023/12/29 05:08:48;;;;;;;18.50;11.50;;;;;;;3.99;100.00;100079.89;106408;1262;102557;-80
2023/12/29 05:11:34;;;;;;;20.40;12.10;;;;;;;4.00;100.00;100084.30;105816;1266;99302;-80
2023/12/29 05:14:19;;;;;;;21.40;11.20;;;;;;;4.01;100.00;100081.75;105853;1267;97974;-81
2023/12/29 05:17:04;;;;;;;19.10;11.30;;;;;;;4.02;100.00;100087.29;106448;1262;97972;-81
2023/12/29 05:19:50;;;;;;;22.00;12.00;;;;;;;4.02;100.00;100091.69;106329;1265;98506;-81
2023/12/29 05:22:36;;;;;;;24.20;12.60;;;;;;;4.02;100.00;100088.39;106406;1263;102602;-81
2023/12/29 05:25:24;;;;;;;22.50;12.40;;;;;;;4.02;100.00;100087.13;106312;1264;100654;-80
2023/12/29 05:28:09;;;;;;;22.50;12.60;;;;;;;4.02;100.00;100087.65;106382;1266;98215;-81
2023/12/29 05:30:55;;;;;;;17.80;11.50;;;;;;;4.02;100.00;100088.02;106468;1265;98058;-80
2023/12/29 05:33:41;;;;;;;18.50;11.40;;;;;;;4.02;100.00;100089.11;106437;1267;97873;-81
2023/12/29 05:36:26;;;;;;;20.60;11.50;;;;;;;4.00;100.00;100089.59;106371;1262;102354;-80
2023/12/29 05:39:11;;;;;;;20.30;11.30;;;;;;;4.00;100.00;100091.38;106365;1262;100343;-81
2023/12/29 05:41:57;;;;;;;17.30;11.30;;;;;;;4.02;100.00;100087.19;106146;1262;97984;-81
2023/12/29 05:44:42;;;;;;;20.50;12.20;;;;;;;4.02;100.00;100088.32;106367;1262;97978;-81
2023/12/29 05:47:28;;;;;;;20.70;11.80;;;;;;;4.03;100.00;100089.52;106242;1262;95838;-81
2023/12/29 05:50:13;;;;;;;24.40;13.40;;;;;;;4.02;100.00;100081.65;106283;1267;101353;-81
2023/12/29 05:52:59;;;;;;;22.30;12.60;;;;;;;4.03;100.00;100076.29;106417;1267;99221;-82
2023/12/29 05:55:45;;;;;;;24.40;14.00;;;;;;;4.03;100.00;100069.87;106523;1267;99513;-82
2023/12/29 05:58:32;;;;;;;21.10;12.30;;;;;;;4.04;100.00;100063.08;106377;1262;97933;-82
2023/12/29 06:01:17;;;;;;;24.00;13.00;;;;;;;4.04;100.00;100059.67;106423;1262;97549;-82
2023/12/29 06:04:03;;;;;;;24.00;12.70;;;;;;;4.04;100.00;100057.39;106523;1264;102641;-82
2023/12/29 06:06:49;;;;;;;21.70;13.50;;;;;;;4.04;100.00;100056.17;106313;1263;100347;-81
2023/12/29 06:09:34;;;;;;;23.60;13.90;;;;;;;4.05;100.00;100055.77;106357;1262;99266;-81
2023/12/29 06:12:20;;;;;;;26.80;14.70;;;;;;;4.04;100.00;100051.27;106287;1266;98970;-81
2023/12/29 06:15:06;;;;;;;25.20;14.40;;;;;;;4.05;100.00;100059.58;106428;1262;97909;-81
2023/12/29 06:17:52;;;;;;;25.50;14.30;;;;;;;4.07;100.00;100062.94;106487;1265;101396;-81
2023/12/29 06:20:37;;;;;;;23.80;13.40;;;;;;;4.08;100.00;100058.36;106432;1266;99298;-80
2023/12/29 06:23:25;;;;;;;21.90;12.70;;;;;;;4.09;100.00;100054.29;106322;1265;98366;-80
2023/12/29 06:26:15;;;;;;;22.70;13.20;;;;;;;4.10;100.00;100052.25;106399;1264;97881;-80
2023/12/29 06:29:01;;;;;;;18.90;12.00;;;;;;;4.11;100.00;100059.11;106489;1267;99290;-80
2023/12/29 06:31:46;;;;;;;21.70;12.30;;;;;;;4.13;100.00;100059.69;106271;1267;101438;-81
2023/12/29 06:34:32;;;;;;;19.50;11.30;;;;;;;4.15;100.00;100064.55;106006;1262;99226;-80
2023/12/29 06:37:18;;;;;;;21.30;12.60;;;;;;;4.17;100.00;100070.56;106402;1264;99538;-80
2023/12/29 06:40:04;;;;;;;22.30;13.20;;;;;;;4.19;100.00;100066.23;106432;1265;97969;-81
2023/12/29 06:42:49;;;;;;;19.90;11.60;;;;;;;4.21;100.00;100058.42;106266;1262;97830;-81
2023/12/29 06:45:35;;;;;;;20.70;11.70;;;;;;;4.23;100.00;100067.23;106295;1267;101375;-80
2023/12/29 06:48:20;;;;;;;19.60;11.30;;;;;;;4.25;100.00;100066.36;106380;1263;99188;-80
2023/12/29 06:51:06;;;;;;;21.20;11.50;;;;;;;4.25;100.00;100064.20;106460;1262;99167;-81
2023/12/29 06:53:51;;;;;;;20.60;12.30;;;;;;;4.26;100.00;100066.20;106530;1267;97907;-80
2023/12/29 06:56:37;;;;;;;18.50;11.50;;;;;;;4.28;100.00;100068.13;106380;1264;98451;-80
2023/12/29 06:59:22;;;;;;;18.60;11.70;;;;;;;4.30;100.00;100060.31;106419;1267;102028;-80
2023/12/29 07:02:08;;;;;;;21.10;12.20;;;;;;;4.31;100.00;100049.23;106310;1265;99065;-79
2023/12/29 07:04:53;;;;;;;20.10;11.60;;;;;;;4.33;100.00;100039.89;106444;1262;98497;-81
2023/12/29 07:07:39;;;;;;;20.90;12.10;;;;;;;4.35;100.00;100041.71;106452;1265;98387;-80
2023/12/29 07:10:24;;;;;;;15.30;10.10;;;;;;;4.38;100.00;100033.55;105936;1267;97771;-80
2023/12/29 07:13:10;;;;;;;21.30;12.30;;;;;;;4.41;100.00;100024.73;105950;1267;102308;-80
2023/12/29 07:15:56;;;;;;;21.20;12.20;;;;;;;4.44;100.00;100018.87;105721;1264;99167;-80
2023/12/29 07:18:42;;;;;;;19.50;12.10;;;;;;;4.47;100.00;100018.58;105914;1262;98965;-80
2023/12/29 07:21:27;;;;;;;21.40;11.60;;;;;;;4.50;100.00;100021.98;105990;1265;98031;-80
2023/12/29 07:24:13;;;;;;;21.60;12.00;;;;;;;4.52;100.00;100021.52;106442;1265;98017;-80
2023/12/29 07:26:59;;;;;;;22.70;11.20;;;;;;;4.55;100.00;100024.20;106415;1262;102633;-80
2023/12/29 07:29:44;;;;;;;16.00;10.10;;;;;;;4.59;100.00;100018.48;106290;1264;99452;-80
2023/12/29 07:32:32;;;;;;;16.80;10.30;;;;;;;4.65;100.00;100023.20;106331;1266;98598;-82
2023/12/29 07:35:19;;;;;;;21.10;11.50;;;;;;;4.69;100.00;100023.05;106398;1267;96509;-81
2023/12/29 07:38:05;;;;;;;16.10;10.10;;;;;;;4.74;100.00;100014.59;106395;1262;98423;-81
2023/12/29 07:40:50;;;;;;;19.80;10.40;;;;;;;4.77;100.00;100014.77;106289;1262;101421;-82
2023/12/29 07:43:36;;;;;;;17.30;10.90;;;;;;;4.81;100.00;100020.58;106427;1267;100438;-80
2023/12/29 07:46:28;;;;;;;20.80;11.60;;;;;;;4.85;100.00;100018.91;106408;1262;97895;-81
2023/12/29 07:49:14;;;;;;;18.20;11.40;;;;;;;4.87;100.00;100018.09;106418;1269;98401;-80
2023/12/29 07:51:59;;;;;;;19.50;10.90;;;;;;;4.92;100.00;100019.02;106216;1268;98937;-80
2023/12/29 07:54:45;;;;;;;22.80;11.90;;;;;;;4.95;100.00;100012.89;105295;1267;101354;-78
2023/12/29 07:57:30;;;;;;;20.00;11.30;;;;;;;4.97;100.00;100013.16;105590;1263;100383;-83
2023/12/29 08:00:17;;;;;;;21.40;10.90;;;;;;;4.99;100.00;100006.63;106040;1267;97965;-78
2023/12/29 08:03:03;;;;;;;16.40;10.10;;;;;;;5.00;100.00;100005.63;105888;1266;97974;-83
2023/12/29 08:05:48;;;;;;;18.50;10.30;;;;;;;5.00;100.00;100005.58;106004;1267;98621;-85
2023/12/29 08:08:34;;;;;;;19.60;11.20;;;;;;;5.01;100.00;100005.66;105844;1269;101442;-80
2023/12/29 08:11:19;;;;;;;21.10;11.20;;;;;;;5.02;100.00;100009.05;105958;1268;99298;-88
2023/12/29 08:14:06;;;;;;;20.80;11.40;;;;;;;5.04;100.00;100007.82;106589;1269;98549;-87
2023/12/29 08:16:52;;;;;;;17.50;10.30;;;;;;;5.06;100.00;100006.86;106109;1268;97990;-83
2023/12/29 08:19:40;;;;;;;18.90;10.50;;;;;;;5.07;100.00;100004.57;106037;1266;98506;-83
2023/12/29 08:22:35;;;;;;;16.50;10.60;;;;;;;5.08;100.00;100008.23;106033;1269;101558;-82
2023/12/29 08:25:20;;;;;;;15.90;10.10;;;;;;;5.10;100.00;100014.89;106465;1262;99140;-81
2023/12/29 08:28:06;;;;;;;18.40;10.00;;;;;;;5.12;100.00;100013.45;106124;1268;99117;-85
2023/12/29 08:30:52;;;;;;;16.20;10.20;;;;;;;5.13;100.00;100009.27;105458;1269;98061;-77
2023/12/29 08:33:38;;;;;;;13.70;9.40;;;;;;;5.14;100.00;100008.42;105487;1276;97972;-79
2023/12/29 08:36:23;;;;;;;18.20;10.00;;;;;;;5.16;100.00;100006.27;105463;1267;101403;-79
2023/12/29 08:39:09;;;;;;;15.90;10.00;;;;;;;5.19;100.00;100000.33;105485;1267;99159;-77
2023/12/29 08:41:54;;;;;;;15.30;8.90;;;;;;;5.20;100.00;99991.83;105602;1264;98088;-78
2023/12/29 08:44:40;;;;;;;14.30;9.20;;;;;;;5.23;100.00;99991.15;105489;1265;97984;-78
2023/12/29 08:47:26;;;;;;;14.70;9.50;;;;;;;5.26;100.00;99995.79;105727;1266;98098;-90
2023/12/29 08:50:14;;;;;;;15.40;9.50;;;;;;;5.29;100.00;99997.05;106471;1262;102449;-87
2023/12/29 08:52:59;;;;;;;20.30;10.40;;;;;;;5.32;100.00;99997.27;105841;1269;100065;-86
2023/12/29 08:55:45;;;;;;;19.60;10.20;;;;;;;5.35;100.00;99995.86;105680;1264;97980;-87
2023/12/29 08:58:38;;;;;;;19.10;10.00;;;;;;;5.38;100.00;99993.00;106075;1262;98111;-88
2023/12/29 09:01:23;;;;;;;20.90;10.20;;;;;;;5.42;100.00;99993.86;105849;1264;96276;-83
2023/12/29 09:04:09;;;;;;;16.10;9.70;;;;;;;5.45;100.00;99996.31;106072;1267;102477;-84
2023/12/29 09:06:55;;;;;;;17.60;9.80;;;;;;;5.49;100.00;100000.48;106714;1264;100096;-88
2023/12/29 09:09:44;;;;;;;16.80;9.80;;;;;;;5.54;100.00;100002.14;106482;1267;98257;-88
2023/12/29 09:12:29;;;;;;;16.30;9.60;;;;;;;5.58;100.00;100002.48;106110;1264;97097;-81
2023/12/29 09:15:24;;;;;;;19.40;11.00;;;;;;;5.63;100.00;99996.51;105775;1268;98452;-88
2023/12/29 09:18:11;;;;;;;19.60;9.90;;;;;;;5.67;100.00;99992.80;105970;1268;103219;-85
2023/12/29 09:20:56;;;;;;;15.10;9.90;;;;;;;5.72;100.00;99990.10;105937;1268;99177;-85
2023/12/29 09:23:42;;;;;;;14.90;9.40;;;;;;;5.77;100.00;99987.49;106195;1264;99846;-88
2023/12/29 09:26:28;;;;;;;16.10;9.20;;;;;;;5.81;100.00;99984.53;106247;1268;99263;-86
2023/12/29 09:29:13;;;;;;;17.30;10.30;;;;;;;5.84;100.00;99981.16;106286;1263;99272;-87
2023/12/29 09:32:02;;;;;;;18.50;10.40;;;;;;;5.88;100.00;99982.64;106103;1269;101456;-90
2023/12/29 09:34:48;;;;;;;18.10;8.80;;;;;;;5.95;100.00;99985.47;106049;1265;100469;-88
2023/12/29 09:37:33;;;;;;;13.90;9.70;;;;;;;6.00;100.00;99982.52;106010;1266;98150;-84
2023/12/29 09:40:19;;;;;;;17.40;9.70;;;;;;;6.07;100.00;99980.30;106090;1264;97955;-83
2023/12/29 09:43:05;;;;;;;15.10;9.50;;;;;;;6.16;100.00;99984.62;105810;1267;97978;-83
2023/12/29 09:45:51;;;;;;;17.30;10.00;;;;;;;6.25;100.00;99982.48;105701;1264;102819;-83
2023/12/29 09:48:37;;;;;;;15.70;8.90;;;;;;;6.35;100.00;99978.90;105923;1268;99920;-83
2023/12/29 09:51:24;;;;;;;17.40;10.00;;;;;;;6.44;100.00;99980.77;105907;1264;100082;-82
2023/12/29 09:54:10;;;;;;;20.80;10.30;;;;;;;6.49;100.00;99977.81;105944;1266;98251;-83
2023/12/29 09:56:57;;;;;;;17.60;9.10;;;;;;;6.55;100.00;99976.39;106317;1267;98012;-84
2023/12/29 10:00:17;;;;;;;14.30;9.50;;;;;;;6.62;100.00;99970.59;106832;1262;101450;-89
2023/12/29 10:03:06;;;;;;;15.90;8.10;;;;;;;6.71;100.00;99967.31;106451;1264;100351;-89
2023/12/29 10:05:56;;;;;;;13.20;8.10;;;;;;;6.77;100.00;99963.20;106054;1268;97994;-84
2023/12/29 10:08:46;;;;;;;13.80;8.00;;;;;;;6.83;100.00;99960.11;105823;1266;97908;-85
2023/12/29 10:11:37;;;;;;;16.90;7.90;;;;;;;6.88;100.00;99954.89;105670;1269;98132;-85
2023/12/29 10:14:30;;;;;;;14.10;8.20;;;;;;;6.93;100.00;99951.52;105194;1270;102756;-80
2023/12/29 10:17:37;;;;;;;12.60;8.30;;;;;;;6.98;100.00;99950.59;105285;1267;100352;-77
2023/12/29 10:20:33;;;;;;;14.50;7.90;;;;;;;7.02;100.00;99957.74;105272;1264;98977;-78
2023/12/29 10:23:22;;;;;;;13.70;7.80;;;;;;;7.05;100.00;99958.48;105420;1267;99126;-85
2023/12/29 10:26:12;;;;;;;17.80;8.50;;;;;;;7.09;100.00;99960.77;107481;1264;96093;-89
2023/12/29 10:28:58;;;;;;;10.40;6.50;;;;;;;7.18;100.00;99958.86;107338;1263;101571;-87
2023/12/29 10:31:44;;;;;;;8.70;5.40;;;;;;;7.28;100.00;99960.30;107318;1265;99234;-87
2023/12/29 10:34:31;;;;;;;10.10;5.60;;;;;;;7.39;100.00;99959.00;106765;1264;99221;-87
2023/12/29 10:37:23;;;;;;;13.20;5.70;;;;;;;7.51;100.00;99956.77;106804;1264;97893;-90
2023/12/29 10:40:09;;;;;;;9.90;5.70;;;;;;;7.62;100.00;99954.89;106944;1267;97908;-86
2023/12/29 10:42:55;;;;;;;7.40;4.90;;;;;;;7.71;100.00;99952.19;105834;1266;101461;-85
2023/12/29 10:45:41;;;;;;;8.60;4.80;;;;;;;7.84;100.00;99954.77;105772;1264;108523;-85
2023/12/29 10:48:27;;;;;;;8.30;4.10;;;;;;;7.92;100.00;99956.11;105941;1263;97892;-85
2023/12/29 10:51:13;;;;;;;9.10;4.50;;;;;;;7.99;100.00;99954.89;105826;1264;97897;-85
2023/12/29 10:54:00;;;;;;;7.10;4.60;;;;;;;8.05;100.00;99948.81;105918;1264;97869;-86
2023/12/29 10:56:45;;;;;;;7.90;4.60;;;;;;;8.10;100.00;99944.66;106028;1263;103231;-89
2023/12/29 10:59:56;;;;;;;10.90;5.20;;;;;;;8.14;100.00;99942.02;106710;1264;100827;-89
2023/12/29 11:02:41;;;;;;;6.90;4.10;;;;;;;8.20;100.00;99941.11;106306;1267;98121;-85
2023/12/29 11:05:27;;;;;;;7.80;4.80;;;;;;;8.26;100.00;99936.63;106194;1264;97953;-82
2023/12/29 11:08:21;;;;;;;6.80;4.40;;;;;;;8.32;100.00;99934.23;106408;1264;98437;-85
2023/12/29 11:11:09;;;;;;;7.50;4.40;;;;;;;8.38;100.00;99927.31;105726;1266;101490;-82
2023/12/29 11:13:56;;;;;;;6.10;3.70;;;;;;;8.45;100.00;99920.00;105741;1269;99170;-83
2023/12/29 11:16:43;;;;;;;6.70;3.50;;;;;;;8.53;100.00;99918.16;105761;1269;99127;-83
2023/12/29 11:19:29;;;;;;;5.80;3.70;;;;;;;8.60;100.00;99913.59;105671;1262;97900;-80
2023/12/29 11:22:18;;;;;;;6.00;3.30;;;;;;;8.67;100.00;99910.40;105920;1264;98669;-82
2023/12/29 11:25:04;;;;;;;9.00;4.30;;;;;;;8.71;100.00;99913.73;105878;1268;101362;-82
2023/12/29 11:27:52;;;;;;;6.30;3.50;;;;;;;8.75;100.00;99911.99;106121;1269;99234;-90
2023/12/29 11:30:39;;;;;;;5.10;3.60;;;;;;;8.77;99.81;99903.71;106434;1267;99222;-89
2023/12/29 11:33:35;;;;;;;7.10;3.90;;;;;;;8.79;99.39;99901.36;106303;1263;98468;-84
2023/12/29 11:36:31;;;;;;;4.30;3.20;;;;;;;8.82;99.01;99892.59;105657;1264;97984;-83
2023/12/29 11:39:22;;;;;;;6.40;4.30;;;;;;;8.85;98.82;99886.45;105583;1267;101510;-83
2023/12/29 11:42:31;;;;;;;5.80;3.80;;;;;;;8.86;98.99;99883.35;105757;1264;99146;-83
2023/12/29 11:45:32;;;;;;;5.90;3.80;;;;;;;8.83;99.03;99879.78;105824;1264;98408;-80
2023/12/29 11:48:54;;;;;;;5.30;3.80;;;;;;;8.81;98.95;99876.60;106188;1263;97969;-85
2023/12/29 11:51:49;;;;;;;6.10;3.50;;;;;;;8.79;98.70;99871.53;106181;1263;97414;-83
2023/12/29 11:54:34;;;;;;;7.60;4.90;;;;;;;8.79;98.46;99868.95;105612;1264;101443;-83
2023/12/29 11:57:31;;;;;;;8.40;5.00;;;;;;;8.81;98.29;99872.77;105552;1264;99340;-84
2023/12/29 12:00:17;;;;;;;8.10;5.10;;;;;;;8.83;98.29;99881.79;105663;1264;97973;-83
2023/12/29 12:03:19;;;;;;;8.70;4.70;;;;;;;8.84;97.68;99880.12;105747;1267;97881;-82
2023/12/29 12:06:04;;;;;;;7.50;4.30;;;;;;;8.84;97.31;99875.03;106114;1264;97881;-88
2023/12/29 12:09:25;;;;;;;8.70;5.30;;;;;;;8.87;97.30;99873.20;106030;1263;101447;-87
2023/12/29 12:12:10;;;;;;;8.50;4.50;;;;;;;8.90;97.19;99875.23;105768;1263;100911;-85
2023/12/29 12:14:57;;;;;;;7.30;4.90;;;;;;;8.92;96.99;99871.67;106024;1264;99931;-82
2023/12/29 12:17:43;;;;;;;7.40;4.90;;;;;;;8.95;96.81;99871.54;106204;1264;97899;-83
2023/12/29 12:20:29;;;;;;;11.40;6.10;;;;;;;8.97;96.88;99876.03;105845;1263;97930;-87
2023/12/29 12:23:17;;;;;;;8.00;4.40;;;;;;;8.99;96.59;99874.84;105571;1264;102849;-78
2023/12/29 12:26:06;;;;;;;9.00;5.50;;;;;;;9.03;96.13;99872.59;105193;1268;131104;-77
2023/12/29 12:28:53;;;;;;;12.50;6.80;;;;;;;9.06;96.02;99869.23;105299;1269;99914;-77
2023/12/29 12:31:55;;;;;;;11.50;5.70;;;;;;;9.07;95.99;99869.90;105214;1266;98003;-78
2023/12/29 12:34:41;;;;;;;6.80;4.50;;;;;;;9.09;95.78;99875.63;105255;1264;97969;-78
2023/12/29 12:37:28;;;;;;;11.00;5.70;;;;;;;9.10;95.58;99874.98;105393;1267;101421;-80